Time;durP1;ratioP1;P1;durP2;ratioP2;P2;SDS_P1;SDS_P2;PMS_P1;PMS_P2;Temp;Humidity;BMP_temperature;BMP_pressure;BME280_temperature;BME280_humidity;BME280_pressure;Samples;Min_cycle;Max_cycle;Signal;HPM_P1;HPM_P2
2022/07/02 00:01:37;;;;;;;8.52;5.20;;;22.60;99.90;;;;;;4210522;28;20079;-63
2022/07/02 00:03:42;;;;;;;9.48;5.88;;;22.60;99.90;;;;;;4211839;28;20036;-63
2022/07/02 00:05:52;;;;;;;12.63;5.80;;;22.60;99.90;;;;;;4210443;28;20054;-64
2022/07/02 00:07:53;;;;;;;5.88;5.20;;;22.50;99.90;;;;;;4211273;28;20032;-64
2022/07/02 00:09:56;;;;;;;7.50;6.05;;;22.40;99.90;;;;;;4210715;28;20085;-66
2022/07/02 00:11:58;;;;;;;6.65;5.70;;;22.40;99.90;;;;;;4213886;28;20056;-66
2022/07/02 00:14:00;;;;;;;7.32;5.05;;;22.30;99.90;;;;;;4214143;28;20028;-64
2022/07/02 00:16:01;;;;;;;8.50;5.13;;;22.30;99.90;;;;;;4214159;28;20101;-65
2022/07/02 00:18:03;;;;;;;7.78;5.07;;;22.30;99.90;;;;;;4214530;28;20097;-63
2022/07/02 00:20:04;;;;;;;8.13;6.43;;;22.30;99.90;;;;;;4213599;28;20108;-64
2022/07/02 00:22:06;;;;;;;6.72;5.78;;;22.30;99.90;;;;;;4214044;28;20036;-64
2022/07/02 00:24:08;;;;;;;8.90;5.05;;;22.20;99.90;;;;;;4213402;28;20028;-63
2022/07/02 00:26:16;;;;;;;6.85;5.82;;;22.20;99.90;;;;;;4214537;28;20020;-65
2022/07/02 00:28:19;;;;;;;6.68;5.95;;;22.10;99.90;;;;;;4213433;28;20038;-64
2022/07/02 00:30:20;;;;;;;6.15;5.03;;;22.00;99.90;;;;;;4214521;28;20028;-63
2022/07/02 00:32:24;;;;;;;7.28;5.75;;;22.00;99.90;;;;;;4213498;28;20032;-65
2022/07/02 00:34:26;;;;;;;9.98;5.78;;;22.00;99.90;;;;;;4214805;28;20024;-64
2022/07/02 00:36:31;;;;;;;8.07;6.53;;;22.00;99.90;;;;;;4213203;28;20406;-63
2022/07/02 00:38:33;;;;;;;6.55;5.70;;;21.90;99.90;;;;;;4214650;28;20101;-63
2022/07/02 00:40:34;;;;;;;7.03;5.95;;;21.90;99.90;;;;;;4213432;28;20039;-63
2022/07/02 00:42:36;;;;;;;9.07;6.25;;;21.90;99.90;;;;;;4212834;28;20478;-67
2022/07/02 00:44:39;;;;;;;8.80;6.13;;;21.90;99.90;;;;;;4214328;28;20036;-64
2022/07/02 00:46:42;;;;;;;11.75;6.07;;;21.90;99.90;;;;;;4214066;28;20036;-67
2022/07/02 00:48:43;;;;;;;7.20;6.50;;;21.90;99.90;;;;;;4213604;28;20510;-63
2022/07/02 00:50:45;;;;;;;10.35;5.75;;;21.90;99.90;;;;;;4213435;28;20028;-66
2022/07/02 00:52:46;;;;;;;7.85;5.82;;;21.90;99.90;;;;;;4213915;28;20036;-63
2022/07/02 00:54:47;;;;;;;6.68;5.90;;;21.90;99.90;;;;;;4213299;28;20032;-64
2022/07/02 00:56:52;;;;;;;8.40;5.80;;;21.90;99.90;;;;;;4213902;28;20054;-65
2022/07/02 00:58:53;;;;;;;7.97;6.20;;;21.90;99.90;;;;;;4212846;28;20074;-64
2022/07/02 01:00:54;;;;;;;9.40;7.00;;;21.90;99.90;;;;;;4213778;28;20048;-65
2022/07/02 01:02:59;;;;;;;7.85;6.20;;;21.80;99.90;;;;;;4213526;28;20036;-63
2022/07/02 01:05:00;;;;;;;8.43;6.35;;;21.80;99.90;;;;;;4214207;28;20089;-66
2022/07/02 01:07:06;;;;;;;8.45;6.53;;;21.80;99.90;;;;;;4213059;28;20485;-63
2022/07/02 01:11:32;;;;;;;8.52;5.93;;;21.80;99.90;;;;;;4212678;28;20032;-64
2022/07/02 01:13:33;;;;;;;8.80;5.70;;;21.80;99.90;;;;;;4214131;28;20048;-63
2022/07/02 01:15:34;;;;;;;9.13;6.00;;;21.80;99.90;;;;;;4213040;28;20192;-63
2022/07/02 01:17:36;;;;;;;8.57;5.68;;;21.90;99.90;;;;;;4213646;28;20081;-68
2022/07/02 01:19:38;;;;;;;9.30;5.97;;;21.80;99.90;;;;;;4212592;28;20549;-64
2022/07/02 01:22:18;;;;;;;6.72;5.68;;;21.90;99.90;;;;;;4213580;28;20107;-65
2022/07/02 01:24:25;;;;;;;8.43;6.22;;;21.80;99.90;;;;;;4212798;28;20422;-63
2022/07/02 01:26:27;;;;;;;8.48;6.28;;;21.80;99.90;;;;;;4213592;28;20040;-63
2022/07/02 01:28:28;;;;;;;8.48;6.20;;;21.80;99.90;;;;;;4212483;28;20020;-62
2022/07/02 01:30:29;;;;;;;8.88;5.80;;;21.80;99.90;;;;;;4213921;28;20097;-63
2022/07/02 01:32:31;;;;;;;7.25;6.13;;;21.70;99.90;;;;;;4212308;28;20048;-63
2022/07/02 01:34:40;;;;;;;6.70;5.95;;;21.70;99.90;;;;;;4214002;28;20032;-67
2022/07/02 01:36:41;;;;;;;8.18;5.85;;;21.80;99.90;;;;;;4212247;28;20029;-66
2022/07/02 01:38:42;;;;;;;6.65;4.65;;;21.80;99.90;;;;;;4213349;28;20073;-63
2022/07/02 01:40:43;;;;;;;6.82;5.43;;;21.80;99.90;;;;;;4212591;28;20493;-64
2022/07/02 01:42:44;;;;;;;6.47;5.38;;;21.90;99.90;;;;;;4212801;28;20024;-66
2022/07/02 01:44:46;;;;;;;6.40;5.63;;;22.00;99.90;;;;;;4212814;28;20460;-65
2022/07/02 01:46:47;;;;;;;7.07;6.35;;;22.00;99.90;;;;;;4212387;28;20101;-62
2022/07/02 01:48:48;;;;;;;8.38;6.35;;;21.90;99.90;;;;;;4213058;28;20070;-63
2022/07/02 01:50:50;;;;;;;7.15;6.28;;;21.80;99.90;;;;;;4211961;28;20081;-62
2022/07/02 01:52:51;;;;;;;10.90;5.57;;;21.80;99.90;;;;;;4213308;28;20085;-60
2022/07/02 01:54:52;;;;;;;6.55;5.93;;;21.80;99.90;;;;;;4212270;28;20079;-64
2022/07/02 01:56:54;;;;;;;10.32;5.93;;;21.80;99.90;;;;;;4213122;28;20105;-63
2022/07/02 01:58:55;;;;;;;7.05;5.63;;;21.80;99.90;;;;;;4211910;28;20089;-63
2022/07/02 02:00:56;;;;;;;6.30;5.65;;;21.80;99.90;;;;;;4213271;28;20031;-66
2022/07/02 02:02:57;;;;;;;8.93;6.20;;;21.80;99.90;;;;;;4211905;28;20074;-64
2022/07/02 02:04:58;;;;;;;7.65;5.45;;;21.70;99.90;;;;;;4213587;28;20078;-63
2022/07/02 02:07:00;;;;;;;7.05;5.90;;;21.60;99.90;;;;;;4211738;28;20451;-64
2022/07/02 02:09:02;;;;;;;6.57;5.35;;;21.70;99.90;;;;;;4212792;28;20032;-65
2022/07/02 02:11:03;;;;;;;9.88;6.18;;;21.70;99.90;;;;;;4211569;28;20097;-64
2022/07/02 02:13:04;;;;;;;8.93;6.43;;;21.70;99.90;;;;;;4212339;28;20081;-63
2022/07/02 02:15:05;;;;;;;6.38;5.70;;;21.70;99.90;;;;;;4212140;28;20016;-64
2022/07/02 02:17:07;;;;;;;8.05;5.80;;;21.60;99.90;;;;;;4210979;28;20085;-66
2022/07/02 02:19:08;;;;;;;6.03;5.43;;;21.70;99.90;;;;;;4212412;28;20028;-63
2022/07/02 02:21:10;;;;;;;6.53;5.82;;;21.70;99.90;;;;;;4211587;28;20024;-63
2022/07/02 02:23:11;;;;;;;9.77;5.78;;;21.70;99.90;;;;;;4212567;28;20073;-63
2022/07/02 02:25:12;;;;;;;9.00;6.55;;;21.70;99.90;;;;;;4211489;28;20031;-66
2022/07/02 02:27:13;;;;;;;12.73;5.90;;;21.70;99.90;;;;;;4212541;28;20469;-65
2022/07/02 02:29:14;;;;;;;8.10;5.65;;;21.50;99.90;;;;;;4211569;28;20432;-66
2022/07/02 02:31:15;;;;;;;10.10;5.68;;;21.40;99.90;;;;;;4212468;28;20097;-66
2022/07/02 02:33:17;;;;;;;10.07;6.43;;;21.40;99.90;;;;;;4210555;28;20499;-65
2022/07/02 02:35:18;;;;;;;9.75;6.13;;;21.30;99.90;;;;;;4213060;28;20040;-64
2022/07/02 02:37:19;;;;;;;9.23;6.20;;;21.20;99.90;;;;;;4211389;28;20353;-66
2022/07/02 02:39:20;;;;;;;9.73;6.13;;;21.10;99.90;;;;;;4212490;28;20093;-67
2022/07/02 02:41:21;;;;;;;8.65;6.50;;;21.10;99.90;;;;;;4210155;28;20463;-66
2022/07/02 02:43:22;;;;;;;9.18;5.88;;;21.10;99.90;;;;;;4211964;28;20040;-63
2022/07/02 02:45:23;;;;;;;7.97;6.00;;;21.10;99.90;;;;;;4211430;28;20545;-63
2022/07/02 02:47:25;;;;;;;7.35;5.85;;;21.10;99.90;;;;;;4211574;28;20085;-65
2022/07/02 02:49:26;;;;;;;6.65;6.05;;;21.20;99.90;;;;;;4211861;28;20535;-63
2022/07/02 02:51:27;;;;;;;8.82;5.57;;;21.20;99.90;;;;;;4211131;28;20454;-63
2022/07/02 02:53:28;;;;;;;8.57;5.35;;;21.20;99.90;;;;;;4212557;28;20040;-64
2022/07/02 02:55:30;;;;;;;10.13;5.57;;;21.30;99.90;;;;;;4211231;28;20075;-63
2022/07/02 02:57:31;;;;;;;6.82;6.10;;;21.40;99.90;;;;;;4212291;28;20117;-66
2022/07/02 02:59:32;;;;;;;8.48;5.68;;;21.40;99.90;;;;;;4210683;28;20109;-65
2022/07/02 03:01:33;;;;;;;7.30;5.10;;;21.50;99.90;;;;;;4212096;28;20044;-64
2022/07/02 03:03:35;;;;;;;6.03;5.40;;;21.50;99.90;;;;;;4211182;28;20089;-65
2022/07/02 03:05:36;;;;;;;7.05;6.00;;;21.60;99.90;;;;;;4212648;28;20039;-66
2022/07/02 03:07:38;;;;;;;7.05;5.82;;;21.60;99.90;;;;;;4210842;28;20089;-64
2022/07/02 03:09:40;;;;;;;10.50;6.85;;;21.60;99.90;;;;;;4212127;28;20085;-66
2022/07/02 03:11:42;;;;;;;12.02;6.70;;;21.60;99.90;;;;;;4210751;28;20093;-64
2022/07/02 03:13:43;;;;;;;10.82;5.85;;;21.70;99.90;;;;;;4211704;28;20530;-63
2022/07/02 03:15:44;;;;;;;15.75;6.28;;;21.70;99.90;;;;;;4211101;28;20525;-65
2022/07/02 03:17:45;;;;;;;12.95;5.88;;;21.80;99.90;;;;;;4211655;28;20035;-66
2022/07/02 03:19:46;;;;;;;10.43;5.82;;;21.80;99.90;;;;;;4211499;28;20431;-63
2022/07/02 03:21:47;;;;;;;11.25;6.47;;;21.70;99.90;;;;;;4210831;28;20032;-64
2022/07/02 03:23:49;;;;;;;12.43;5.88;;;21.60;99.90;;;;;;4211978;28;20044;-65
2022/07/02 03:25:50;;;;;;;9.68;5.70;;;21.50;99.90;;;;;;4210560;28;20024;-65
2022/07/02 03:27:51;;;;;;;6.05;5.45;;;21.50;99.90;;;;;;4211719;28;20028;-66
2022/07/02 03:29:52;;;;;;;12.27;6.30;;;21.50;99.90;;;;;;4210624;28;20032;-65
2022/07/02 03:31:54;;;;;;;8.90;5.63;;;21.60;99.90;;;;;;4211504;28;20055;-65
2022/07/02 03:33:55;;;;;;;8.90;6.93;;;21.80;99.90;;;;;;4210528;28;20032;-66
2022/07/02 03:35:56;;;;;;;8.05;5.60;;;21.90;99.90;;;;;;4212126;28;20040;-65
2022/07/02 03:37:57;;;;;;;9.15;6.00;;;22.00;99.90;;;;;;4210515;28;20028;-64
2022/07/02 03:39:59;;;;;;;10.25;6.10;;;22.10;99.90;;;;;;4211867;28;20086;-63
2022/07/02 03:42:00;;;;;;;12.40;7.10;;;22.20;99.90;;;;;;4210112;28;20025;-65
2022/07/02 03:44:01;;;;;;;7.43;6.05;;;22.20;99.90;;;;;;4211243;28;20427;-64
2022/07/02 03:46:03;;;;;;;6.80;5.70;;;22.10;99.90;;;;;;4210897;28;20090;-61
2022/07/02 03:48:04;;;;;;;8.75;5.90;;;22.20;99.90;;;;;;4210891;28;20078;-63
2022/07/02 03:50:06;;;;;;;10.82;6.20;;;22.30;99.90;;;;;;4211026;28;20032;-66
2022/07/02 03:52:07;;;;;;;12.27;6.13;;;22.20;99.90;;;;;;4210180;28;20089;-67
2022/07/02 03:54:08;;;;;;;10.15;5.90;;;22.20;99.90;;;;;;4211387;28;20493;-65
2022/07/02 03:56:09;;;;;;;9.27;6.10;;;22.20;99.90;;;;;;4210160;28;20085;-62
2022/07/02 03:58:11;;;;;;;7.57;5.53;;;22.20;99.90;;;;;;4211290;28;20023;-62
2022/07/02 04:00:12;;;;;;;8.65;5.80;;;22.10;99.90;;;;;;4210014;28;20052;-63
2022/07/02 04:02:13;;;;;;;9.02;6.07;;;22.10;99.90;;;;;;4211363;28;20040;-66
2022/07/02 04:04:14;;;;;;;10.40;6.00;;;22.10;99.90;;;;;;4210190;28;20016;-65
2022/07/02 04:06:16;;;;;;;9.07;6.05;;;22.20;99.90;;;;;;4212516;28;20044;-64
2022/07/02 04:08:17;;;;;;;6.88;5.32;;;22.30;99.90;;;;;;4210201;28;20089;-62
2022/07/02 04:10:18;;;;;;;14.90;6.13;;;22.30;99.90;;;;;;4211339;28;20036;-64
2022/07/02 04:12:19;;;;;;;9.57;6.35;;;22.40;99.90;;;;;;4209764;28;20028;-62
2022/07/02 04:14:20;;;;;;;8.25;6.43;;;22.40;99.90;;;;;;4211193;28;20040;-66
2022/07/02 04:16:22;;;;;;;8.32;6.40;;;22.40;99.90;;;;;;4210431;28;20066;-66
2022/07/02 04:18:24;;;;;;;8.75;6.97;;;22.40;99.90;;;;;;4210916;28;20036;-67
2022/07/02 04:20:26;;;;;;;11.48;6.85;;;22.40;99.90;;;;;;4210880;28;20028;-67
2022/07/02 04:22:28;;;;;;;8.32;6.30;;;22.40;99.90;;;;;;4210529;28;20037;-63
2022/07/02 04:24:29;;;;;;;7.60;6.20;;;22.40;99.90;;;;;;4210804;28;20073;-64
2022/07/02 04:26:30;;;;;;;13.40;6.93;;;22.40;99.90;;;;;;4210158;28;20130;-66
2022/07/02 04:28:32;;;;;;;12.50;6.53;;;22.40;99.90;;;;;;4211078;28;20066;-66
2022/07/02 04:30:33;;;;;;;9.65;5.88;;;22.40;99.90;;;;;;4210002;28;20077;-64
2022/07/02 04:32:34;;;;;;;8.20;6.38;;;22.40;99.90;;;;;;4211062;28;20028;-64
2022/07/02 04:34:35;;;;;;;12.85;7.22;;;22.40;99.90;;;;;;4210212;28;20890;-64
2022/07/02 04:36:37;;;;;;;10.82;5.57;;;22.40;99.90;;;;;;4211501;28;20109;-65
2022/07/02 04:38:38;;;;;;;7.25;5.13;;;22.40;99.90;;;;;;4209894;28;20086;-62
2022/07/02 04:40:40;;;;;;;11.18;5.60;;;22.40;99.90;;;;;;4211229;28;20097;-65
2022/07/02 04:42:41;;;;;;;8.75;5.25;;;22.40;99.90;;;;;;4209881;28;20032;-62
2022/07/02 04:44:42;;;;;;;6.88;5.57;;;22.30;99.90;;;;;;4211252;28;20028;-67
2022/07/02 04:46:43;;;;;;;10.13;5.32;;;22.20;99.90;;;;;;4208505;28;20024;-63
2022/07/02 04:48:44;;;;;;;9.40;5.35;;;22.20;99.90;;;;;;4210123;28;20078;-64
2022/07/02 04:50:45;;;;;;;11.40;5.55;;;22.20;99.90;;;;;;4208269;28;20462;-64
2022/07/02 04:52:48;;;;;;;8.20;5.32;;;22.20;99.90;;;;;;4209677;28;20089;-65
2022/07/02 04:54:50;;;;;;;9.35;6.97;;;22.20;99.90;;;;;;4209978;28;20366;-65
2022/07/02 04:56:51;;;;;;;11.57;5.63;;;22.30;99.90;;;;;;4209965;28;20028;-63
2022/07/02 04:58:52;;;;;;;7.13;5.35;;;22.40;99.90;;;;;;4212754;28;20036;-63
2022/07/02 05:00:53;;;;;;;8.23;5.32;;;22.50;99.90;;;;;;4211907;28;20500;-63
2022/07/02 05:02:55;;;;;;;8.80;5.13;;;22.60;99.90;;;;;;4213064;28;20040;-66
2022/07/02 05:04:56;;;;;;;12.00;6.20;;;22.60;99.90;;;;;;4212177;28;20469;-64
2022/07/02 05:06:57;;;;;;;8.00;5.47;;;22.70;99.90;;;;;;4213305;28;20020;-62
2022/07/02 05:08:58;;;;;;;13.02;5.97;;;22.80;99.90;;;;;;4212108;28;20036;-62
2022/07/02 05:10:59;;;;;;;9.93;5.63;;;22.90;99.90;;;;;;4212871;28;20369;-62
2022/07/02 05:13:01;;;;;;;8.35;5.20;;;22.90;99.90;;;;;;4211626;28;20039;-64
2022/07/02 05:15:02;;;;;;;8.73;5.25;;;23.00;99.90;;;;;;4212756;28;20077;-63
2022/07/02 05:17:04;;;;;;;11.82;5.60;;;23.00;99.90;;;;;;4211924;28;20024;-64
2022/07/02 05:19:05;;;;;;;15.25;5.75;;;23.10;99.90;;;;;;4212469;28;20028;-63
2022/07/02 05:21:06;;;;;;;10.82;5.35;;;23.20;99.90;;;;;;4212351;28;20077;-62
2022/07/02 05:23:08;;;;;;;7.20;5.28;;;23.20;99.90;;;;;;4212356;28;20458;-63
2022/07/02 05:25:09;;;;;;;13.23;5.53;;;23.10;99.90;;;;;;4211978;28;20024;-61
2022/07/02 05:27:10;;;;;;;13.05;5.82;;;23.20;99.90;;;;;;4211820;28;20446;-63
2022/07/02 05:29:12;;;;;;;14.30;5.82;;;23.20;99.90;;;;;;4211171;28;20358;-65
2022/07/02 05:31:13;;;;;;;10.07;5.85;;;23.10;99.90;;;;;;4211566;28;20040;-65
2022/07/02 05:33:14;;;;;;;10.23;5.97;;;23.20;99.90;;;;;;4213501;28;20044;-65
2022/07/02 05:35:15;;;;;;;12.38;5.78;;;23.30;99.90;;;;;;4212628;28;20032;-65
2022/07/02 05:37:16;;;;;;;11.07;6.75;;;23.50;99.90;;;;;;4213319;28;20040;-64
2022/07/02 05:39:17;;;;;;;15.73;7.80;;;23.70;99.90;;;;;;4211762;28;20036;-64
2022/07/02 05:41:19;;;;;;;22.55;7.80;;;23.80;99.90;;;;;;4212897;28;20468;-64
2022/07/02 05:43:20;;;;;;;12.43;7.22;;;23.90;99.90;;;;;;4211828;28;20127;-64
2022/07/02 05:45:21;;;;;;;8.27;5.75;;;24.20;99.90;;;;;;4212875;28;20040;-62
2022/07/02 05:47:23;;;;;;;14.55;6.70;;;24.40;99.90;;;;;;4211655;28;20029;-66
2022/07/02 05:49:24;;;;;;;6.57;5.07;;;24.60;99.90;;;;;;4212747;28;20040;-64
2022/07/02 05:51:25;;;;;;;8.40;5.40;;;24.80;99.90;;;;;;4212351;28;20048;-66
2022/07/02 05:53:26;;;;;;;7.45;4.30;;;24.90;99.90;;;;;;4212101;28;20048;-62
2022/07/02 05:55:27;;;;;;;8.85;5.45;;;25.00;99.90;;;;;;4212416;28;20040;-62
2022/07/02 05:57:29;;;;;;;9.93;6.07;;;25.20;99.90;;;;;;4200803;28;20028;-62
2022/07/02 05:59:30;;;;;;;13.13;6.60;;;25.30;99.90;;;;;;4195939;28;20086;-64
2022/07/02 06:01:31;;;;;;;10.15;5.53;;;25.30;99.90;;;;;;4204585;28;20085;-64
2022/07/02 06:03:32;;;;;;;6.65;4.25;;;25.30;99.90;;;;;;4212722;28;20028;-66
2022/07/02 06:07:53;;;;;;;5.40;4.15;;;25.50;99.90;;;;;;4212616;28;20472;-65
2022/07/02 06:09:54;;;;;;;7.07;4.10;;;25.90;99.90;;;;;;4211479;28;20082;-69
2022/07/02 06:11:55;;;;;;;7.60;3.65;;;26.10;99.90;;;;;;4212144;28;20473;-64
2022/07/02 06:13:56;;;;;;;12.38;4.28;;;26.30;99.90;;;;;;4211582;28;20380;-66
2022/07/02 06:15:58;;;;;;;6.53;3.83;;;26.80;99.90;;;;;;4212748;28;20024;-68
2022/07/02 06:18:00;;;;;;;6.22;4.10;;;27.40;99.90;;;;;;4210815;28;20040;-65
2022/07/02 06:20:01;;;;;;;8.07;3.80;;;27.80;99.90;;;;;;4212672;28;20542;-68
2022/07/02 06:22:02;;;;;;;9.30;4.13;;;28.70;99.90;;;;;;4211320;28;20044;-63
2022/07/02 06:24:04;;;;;;;8.25;3.85;;;29.30;99.90;;;;;;4211665;28;20032;-63
2022/07/02 06:26:05;;;;;;;4.72;3.58;;;29.70;99.90;;;;;;4210495;28;20082;-66
2022/07/02 06:28:06;;;;;;;6.32;4.03;;;30.00;99.90;;;;;;4211918;28;20085;-68
2022/07/02 06:30:08;;;;;;;8.20;3.95;;;30.40;99.90;;;;;;4211074;28;20511;-70
2022/07/02 06:32:09;;;;;;;6.72;3.30;;;30.90;99.20;;;;;;4210939;28;20028;-69
2022/07/02 06:34:10;;;;;;;5.88;3.60;;;30.90;98.60;;;;;;4211075;28;20057;-64
2022/07/02 06:36:14;;;;;;;9.77;3.72;;;30.60;98.00;;;;;;4211313;28;20163;-66
2022/07/02 06:38:15;;;;;;;8.55;3.70;;;30.50;98.00;;;;;;4212237;28;20256;-66
2022/07/02 06:40:17;;;;;;;7.75;3.65;;;31.20;97.70;;;;;;4210779;28;20081;-66
2022/07/02 06:42:26;;;;;;;6.80;4.18;;;31.20;96.80;;;;;;4212089;28;20036;-71
2022/07/02 06:44:27;;;;;;;5.32;3.72;;;30.40;97.10;;;;;;4210900;28;20024;-65
2022/07/02 06:46:28;;;;;;;4.55;3.38;;;29.60;97.60;;;;;;4211828;28;20032;-65
2022/07/02 06:48:29;;;;;;;5.35;3.50;;;29.10;98.10;;;;;;4210788;28;20753;-73
2022/07/02 06:50:30;;;;;;;5.40;3.80;;;28.70;98.30;;;;;;4195206;28;20028;-65
2022/07/02 06:52:31;;;;;;;4.28;3.10;;;28.60;98.40;;;;;;4194044;28;20392;-68
2022/07/02 06:54:33;;;;;;;6.20;3.22;;;28.40;98.30;;;;;;4195457;28;20098;-68
2022/07/02 06:56:37;;;;;;;5.78;3.53;;;28.40;98.30;;;;;;4209175;28;20052;-66
2022/07/02 06:58:38;;;;;;;3.85;3.00;;;28.40;98.00;;;;;;4211549;28;20032;-65
2022/07/02 07:00:40;;;;;;;4.40;3.53;;;28.10;98.10;;;;;;4210544;28;20483;-66
2022/07/02 07:02:41;;;;;;;5.80;3.20;;;28.10;98.20;;;;;;4211122;28;20036;-71
2022/07/02 07:04:43;;;;;;;3.88;3.13;;;28.20;98.10;;;;;;4211285;28;20039;-70
2022/07/02 07:06:47;;;;;;;3.35;2.90;;;28.50;97.90;;;;;;4211551;28;20073;-75
2022/07/02 07:08:52;;;;;;;7.22;3.08;;;28.70;97.50;;;;;;4211340;28;20069;-72
2022/07/02 07:10:53;;;;;;;5.00;2.55;;;28.60;97.10;;;;;;4210212;28;20074;-69
2022/07/02 07:12:54;;;;;;;3.47;3.10;;;28.70;96.80;;;;;;4211080;28;20048;-67
2022/07/02 07:14:59;;;;;;;4.38;3.15;;;28.80;96.60;;;;;;4210396;28;20077;-72
2022/07/02 07:17:00;;;;;;;7.38;2.92;;;29.00;96.30;;;;;;4211870;28;20423;-69
2022/07/02 07:19:03;;;;;;;4.70;3.28;;;29.30;95.80;;;;;;4210106;28;20031;-66
2022/07/02 07:21:04;;;;;;;3.20;2.90;;;29.50;95.70;;;;;;4211440;28;20048;-66
2022/07/02 07:23:05;;;;;;;5.78;2.65;;;29.50;95.60;;;;;;4210249;28;20040;-66
2022/07/02 07:25:07;;;;;;;4.95;2.90;;;29.40;95.40;;;;;;4211394;28;20036;-68
2022/07/02 07:27:08;;;;;;;5.43;3.65;;;29.40;95.60;;;;;;4209385;28;20069;-65
2022/07/02 07:29:09;;;;;;;3.42;3.13;;;29.20;95.90;;;;;;4211536;28;20473;-66
2022/07/02 07:31:10;;;;;;;4.97;3.00;;;29.10;96.00;;;;;;4209237;28;20179;-65
2022/07/02 07:33:11;;;;;;;5.70;3.33;;;29.00;96.00;;;;;;4210263;28;20060;-63
2022/07/02 07:35:12;;;;;;;5.97;3.53;;;29.10;95.80;;;;;;4209754;28;20476;-68
2022/07/02 07:37:14;;;;;;;5.00;2.90;;;29.00;95.30;;;;;;4210997;28;20040;-67
2022/07/02 07:39:15;;;;;;;10.35;3.13;;;29.10;95.20;;;;;;4210469;28;20020;-62
2022/07/02 07:41:18;;;;;;;3.38;3.08;;;29.40;95.00;;;;;;4210451;28;20028;-67
2022/07/02 07:43:19;;;;;;;4.55;3.63;;;29.50;95.00;;;;;;4210504;28;20457;-66
2022/07/02 07:45:20;;;;;;;7.30;3.42;;;29.30;95.10;;;;;;4209671;28;20054;-65
2022/07/02 07:47:22;;;;;;;3.05;2.70;;;29.10;94.80;;;;;;4211008;28;20110;-65
2022/07/02 07:49:23;;;;;;;4.03;3.40;;;28.90;95.00;;;;;;4209817;28;20020;-67
2022/07/02 07:51:24;;;;;;;7.30;3.38;;;28.90;95.30;;;;;;4210939;28;20529;-62
2022/07/02 07:53:26;;;;;;;5.20;3.33;;;28.80;95.40;;;;;;4209558;28;20044;-64
2022/07/02 07:55:27;;;;;;;6.97;3.28;;;28.80;95.40;;;;;;4211225;28;20089;-70
2022/07/02 07:57:28;;;;;;;4.90;3.50;;;28.70;95.20;;;;;;4208909;28;20032;-64
2022/07/02 07:59:29;;;;;;;6.47;3.28;;;28.60;95.30;;;;;;4210391;28;20089;-66
2022/07/02 08:01:30;;;;;;;4.53;3.40;;;28.60;95.40;;;;;;4209287;28;20043;-63
2022/07/02 08:03:32;;;;;;;5.63;3.20;;;28.70;95.50;;;;;;4210653;28;20446;-64
2022/07/02 08:05:33;;;;;;;6.88;3.88;;;28.70;95.30;;;;;;4210285;28;20024;-64
2022/07/02 08:07:38;;;;;;;6.70;4.45;;;29.00;95.20;;;;;;4210589;28;20427;-64
2022/07/02 08:09:39;;;;;;;4.82;4.00;;;29.20;94.80;;;;;;4209899;28;20133;-65
2022/07/02 08:11:40;;;;;;;6.68;3.92;;;29.20;94.90;;;;;;4210162;28;20084;-65
2022/07/02 08:13:41;;;;;;;5.97;3.83;;;29.20;94.90;;;;;;4210368;28;20364;-67
2022/07/02 08:15:43;;;;;;;5.22;4.05;;;29.10;94.90;;;;;;4209639;28;20028;-67
2022/07/02 08:17:44;;;;;;;6.78;4.07;;;29.20;95.00;;;;;;4210640;28;20048;-64
2022/07/02 08:19:45;;;;;;;7.50;4.25;;;29.30;95.00;;;;;;4209178;28;20074;-65
2022/07/02 08:21:47;;;;;;;4.20;3.50;;;29.30;95.10;;;;;;4210918;28;21215;-67
2022/07/02 08:23:48;;;;;;;4.35;3.72;;;29.40;94.90;;;;;;4208863;28;20028;-63
2022/07/02 08:25:49;;;;;;;4.47;3.88;;;29.50;95.00;;;;;;4210563;28;20561;-64
2022/07/02 08:27:50;;;;;;;5.68;3.60;;;29.80;94.70;;;;;;4209012;28;20434;-63
2022/07/02 08:29:52;;;;;;;8.40;4.22;;;30.20;94.60;;;;;;4206497;28;20048;-64
2022/07/02 08:31:53;;;;;;;9.13;3.88;;;30.30;94.20;;;;;;4208138;28;20035;-65
2022/07/02 08:33:54;;;;;;;9.40;3.90;;;30.40;94.00;;;;;;4213791;28;20036;-65
2022/07/02 08:35:56;;;;;;;4.40;3.75;;;30.60;93.90;;;;;;4213175;28;20073;-66
2022/07/02 08:37:57;;;;;;;7.63;4.13;;;30.40;93.30;;;;;;4213808;28;20028;-67
2022/07/02 08:39:59;;;;;;;4.93;4.00;;;30.20;93.00;;;;;;4213525;28;20032;-65
2022/07/02 08:42:01;;;;;;;4.55;3.60;;;30.10;93.00;;;;;;4213492;28;20036;-68
2022/07/02 08:44:05;;;;;;;3.83;3.53;;;30.10;92.80;;;;;;4213549;28;20032;-65
2022/07/02 08:46:07;;;;;;;3.65;3.30;;;30.20;92.70;;;;;;4213271;28;20489;-66
2022/07/02 08:48:10;;;;;;;5.40;3.40;;;30.30;92.40;;;;;;4213605;28;20128;-66
2022/07/02 08:50:13;;;;;;;4.70;3.42;;;30.30;92.10;;;;;;4212752;28;20020;-66
2022/07/02 08:52:21;;;;;;;3.97;3.03;;;30.40;91.80;;;;;;4213650;28;20079;-64
2022/07/02 08:54:23;;;;;;;5.63;3.47;;;30.60;91.30;;;;;;4212836;28;20432;-65
2022/07/02 08:56:24;;;;;;;3.13;2.83;;;30.60;91.20;;;;;;4213647;28;20379;-67
2022/07/02 08:58:25;;;;;;;3.58;2.88;;;30.70;91.10;;;;;;4212723;28;20371;-68
2022/07/02 09:00:27;;;;;;;6.75;3.35;;;30.90;91.10;;;;;;4213101;28;20043;-65
2022/07/02 09:02:30;;;;;;;7.10;3.47;;;30.90;90.70;;;;;;4212653;28;20028;-65
2022/07/02 09:04:32;;;;;;;4.50;3.20;;;30.80;90.70;;;;;;4212492;28;20382;-65
2022/07/02 09:06:37;;;;;;;7.05;3.75;;;30.80;90.90;;;;;;4212227;28;20105;-64
2022/07/02 09:08:40;;;;;;;8.00;4.00;;;31.10;90.90;;;;;;4213609;28;20032;-63
2022/07/02 09:10:42;;;;;;;4.95;3.53;;;31.20;90.90;;;;;;4212086;28;20047;-65
2022/07/02 09:12:45;;;;;;;6.78;3.72;;;31.40;91.00;;;;;;4213073;28;20081;-64
2022/07/02 09:14:46;;;;;;;5.63;3.95;;;31.50;90.80;;;;;;4212206;28;20089;-64
2022/07/02 09:16:50;;;;;;;5.40;3.42;;;31.50;90.70;;;;;;4213153;28;20044;-63
2022/07/02 09:18:51;;;;;;;7.85;3.80;;;31.60;90.60;;;;;;4212840;28;20588;-65
2022/07/02 09:20:53;;;;;;;10.35;3.65;;;31.90;90.50;;;;;;4212522;28;20017;-65
2022/07/02 09:22:54;;;;;;;8.00;4.20;;;32.00;90.30;;;;;;4212970;28;20113;-63
2022/07/02 09:24:55;;;;;;;4.80;3.15;;;32.00;90.20;;;;;;4212240;28;20181;-65
2022/07/02 09:27:04;;;;;;;5.60;3.20;;;32.10;90.10;;;;;;4215801;28;20032;-64
2022/07/02 09:29:05;;;;;;;5.78;3.58;;;32.30;88.70;;;;;;4212202;28;20040;-66
2022/07/02 09:31:06;;;;;;;4.97;3.20;;;32.40;88.90;;;;;;4213131;28;20074;-64
2022/07/02 09:33:31;;;;;;;3.72;2.88;;;32.60;88.70;;;;;;4212709;28;20056;-65
2022/07/02 09:35:32;;;;;;;7.72;3.60;;;32.80;87.80;;;;;;4213066;28;20073;-67
2022/07/02 09:37:33;;;;;;;8.18;3.30;;;32.90;88.00;;;;;;4211940;28;20074;-66
2022/07/02 09:39:34;;;;;;;6.93;3.20;;;33.00;87.80;;;;;;4212928;28;20028;-66
2022/07/02 09:41:43;;;;;;;6.60;3.47;;;32.90;87.60;;;;;;4211446;28;20089;-64
2022/07/02 09:43:45;;;;;;;9.23;3.13;;;32.60;87.20;;;;;;4212507;28;20024;-65
2022/07/02 09:45:46;;;;;;;7.70;3.55;;;32.50;87.80;;;;;;4212155;28;20044;-64
2022/07/02 09:47:50;;;;;;;4.75;3.08;;;32.50;88.50;;;;;;4213147;28;20036;-64
2022/07/02 09:49:51;;;;;;;9.38;3.72;;;32.50;87.40;;;;;;4211791;28;20053;-64
2022/07/02 09:51:53;;;;;;;3.88;3.20;;;32.60;87.40;;;;;;4213148;28;20455;-66
2022/07/02 09:53:55;;;;;;;5.40;3.33;;;32.70;86.90;;;;;;4211507;28;20097;-64
2022/07/02 09:55:56;;;;;;;4.68;3.22;;;32.70;86.40;;;;;;4210953;28;20093;-65
2022/07/02 09:58:00;;;;;;;6.68;3.63;;;32.80;86.20;;;;;;4211770;28;20074;-64
2022/07/02 10:00:06;;;;;;;4.85;3.38;;;32.80;85.90;;;;;;4211810;28;20032;-67
2022/07/02 10:02:22;;;;;;;3.55;2.80;;;33.00;85.70;;;;;;4212159;28;20036;-65
2022/07/02 10:04:31;;;;;;;3.92;3.40;;;33.10;85.00;;;;;;4212098;28;20130;-66
2022/07/02 10:06:33;;;;;;;6.60;3.45;;;33.30;84.30;;;;;;4211904;28;20099;-66
2022/07/02 10:08:36;;;;;;;7.60;3.63;;;33.30;84.30;;;;;;4211901;28;20028;-66
2022/07/02 10:10:41;;;;;;;3.47;3.00;;;33.30;84.20;;;;;;4212168;28;20521;-66
2022/07/02 10:12:43;;;;;;;8.77;4.05;;;33.20;84.10;;;;;;4212013;28;20446;-66
2022/07/02 10:14:46;;;;;;;4.30;3.47;;;33.10;83.70;;;;;;4212144;28;20484;-66
2022/07/02 10:16:49;;;;;;;3.70;3.13;;;33.10;83.60;;;;;;4211641;28;20118;-66
2022/07/02 10:18:50;;;;;;;4.65;3.33;;;33.10;83.30;;;;;;4212380;28;20036;-64
2022/07/02 10:20:59;;;;;;;4.53;3.30;;;33.10;83.20;;;;;;4211264;28;20039;-65
2022/07/02 10:23:05;;;;;;;3.42;2.85;;;33.20;83.20;;;;;;4212440;28;20036;-65
2022/07/02 10:25:07;;;;;;;4.10;2.83;;;33.20;82.70;;;;;;4210816;28;20090;-65
2022/07/02 10:27:08;;;;;;;3.75;2.90;;;33.10;82.60;;;;;;4212059;28;20755;-66
2022/07/02 10:29:10;;;;;;;3.72;2.70;;;33.10;82.80;;;;;;4211067;28;20553;-67
2022/07/02 10:31:20;;;;;;;4.13;3.15;;;33.30;82.80;;;;;;4212341;28;20028;-65
2022/07/02 10:33:43;;;;;;;5.03;2.88;;;33.40;82.30;;;;;;4211357;28;20480;-65
2022/07/02 10:35:48;;;;;;;4.30;3.20;;;33.70;81.20;;;;;;4212133;28;20036;-66
2022/07/02 10:38:00;;;;;;;5.68;3.10;;;33.80;81.60;;;;;;4210904;28;20024;-64
2022/07/02 10:40:02;;;;;;;6.20;3.10;;;33.60;80.90;;;;;;4212095;28;20101;-66